Irvington, New Jersey
Current Conditions -  °F | °C
As of 3:51 PM on Friday 28 Nov 2014 (Local Time) from KEWR Reporting Station
Few Clouds Few Clouds  
Wind Chill: -6°   Ceiling: Unl
Heat Index:   Visibility: 10mi
Dew Point: -10°   Wind: 21mph
Humidity: 46%   Direction: 300°WNW
Pressure: 30.2"   Gusts: 28mph
Location:  40.73°N, 74.23°W
Report Text: KEWR 282051Z 30018G24KT 10SM FEW045 01/M10 A3020 RMK AO2 SLP226 T00061100 53009
Loading
Personal Weather Stations






























Interactive Weather Map New forecast layout! Learn more

10-Day Weather Forecast

Advertisements
Track Severe Weather on mobile